Time;durP1;ratioP1;P1;durP2;ratioP2;P2;SDS_P1;SDS_P2;PMS_P1;PMS_P2;Temp;Humidity;BMP_temperature;BMP_pressure;BME280_temperature;BME280_humidity;BME280_pressure;Samples;Min_cycle;Max_cycle;Signal;HPM_P1;HPM_P2
2022/10/22 00:00:10;;;;;;;5.78;1.73;;;18.10;99.90;;;;;;5037774;28;20030;-66
2022/10/22 00:02:35;;;;;;;9.65;2.20;;;18.10;99.90;;;;;;5029214;28;20108;-67
2022/10/22 00:05:01;;;;;;;7.50;1.90;;;18.10;99.90;;;;;;5031901;28;20045;-67
2022/10/22 00:07:27;;;;;;;10.30;2.13;;;18.10;99.90;;;;;;5030353;28;20033;-67
2022/10/22 00:09:52;;;;;;;10.27;2.13;;;18.10;99.90;;;;;;5033314;28;20026;-67
2022/10/22 00:12:18;;;;;;;5.80;1.45;;;18.10;99.90;;;;;;5024717;28;20112;-62
2022/10/22 00:14:45;;;;;;;6.43;1.83;;;18.00;99.90;;;;;;5026301;28;20196;-62
2022/10/22 00:17:11;;;;;;;7.28;1.83;;;18.00;99.90;;;;;;5039409;28;20749;-67
2022/10/22 00:19:36;;;;;;;6.90;1.90;;;18.00;99.90;;;;;;5024436;28;20025;-66
2022/10/22 00:22:04;;;;;;;5.68;1.88;;;18.00;99.90;;;;;;5019201;28;20036;-65
2022/10/22 00:24:31;;;;;;;8.90;1.98;;;18.00;99.90;;;;;;5022918;28;20025;-66
2022/10/22 00:26:56;;;;;;;6.22;2.10;;;18.00;99.90;;;;;;5040712;28;20057;-66
2022/10/22 00:29:22;;;;;;;7.75;1.75;;;18.00;99.90;;;;;;5030916;28;20025;-64
2022/10/22 00:31:50;;;;;;;5.82;1.98;;;18.00;99.90;;;;;;5030125;28;20506;-67
2022/10/22 00:34:18;;;;;;;5.90;1.90;;;18.00;99.90;;;;;;5028959;28;20036;-66
2022/10/22 00:36:44;;;;;;;7.22;1.73;;;18.00;99.90;;;;;;5026278;28;20408;-67
2022/10/22 00:39:11;;;;;;;6.85;1.50;;;18.00;99.90;;;;;;5027197;28;20368;-67
2022/10/22 00:41:38;;;;;;;3.97;1.23;;;18.00;99.90;;;;;;5030904;28;20192;-68
2022/10/22 00:44:05;;;;;;;5.68;1.52;;;18.00;99.90;;;;;;5032487;28;20022;-68
2022/10/22 00:46:30;;;;;;;8.05;1.80;;;18.00;99.90;;;;;;5031551;28;20038;-67
2022/10/22 00:48:59;;;;;;;5.20;1.60;;;18.00;99.90;;;;;;5032296;28;20104;-62
2022/10/22 00:51:32;;;;;;;5.35;1.77;;;18.00;99.90;;;;;;5031787;28;20026;-62
2022/10/22 00:54:03;;;;;;;6.80;1.50;;;17.90;99.90;;;;;;5032908;28;20507;-67
2022/10/22 00:56:29;;;;;;;4.18;1.40;;;17.90;99.90;;;;;;5032618;28;20095;-63
2022/10/22 00:58:58;;;;;;;7.43;1.60;;;17.90;99.90;;;;;;5032150;28;20466;-64
2022/10/22 01:01:28;;;;;;;3.45;1.42;;;17.90;99.90;;;;;;5035921;28;20029;-60
2022/10/22 01:03:54;;;;;;;5.47;1.63;;;18.00;99.90;;;;;;5032621;28;20040;-60
2022/10/22 01:06:28;;;;;;;7.43;1.60;;;18.00;99.90;;;;;;5038681;28;20045;-62
2022/10/22 01:09:43;;;;;;;8.02;1.73;;;17.90;99.90;;;;;;5036510;28;20475;-63
2022/10/22 01:12:27;;;;;;;8.48;1.70;;;17.90;99.90;;;;;;4982245;28;20528;-66
2022/10/22 01:14:56;;;;;;;6.22;1.85;;;17.90;99.90;;;;;;5030557;28;20026;-65
2022/10/22 01:17:35;;;;;;;8.23;1.95;;;17.90;99.90;;;;;;5016258;28;20038;-65
2022/10/22 01:20:06;;;;;;;6.10;1.45;;;17.80;99.90;;;;;;5016051;28;20017;-68
2022/10/22 01:22:41;;;;;;;7.03;1.85;;;17.90;99.90;;;;;;5015866;28;20067;-63
2022/10/22 01:25:16;;;;;;;4.43;1.45;;;17.90;99.90;;;;;;5016340;28;20040;-69
2022/10/22 01:27:56;;;;;;;7.22;1.65;;;17.90;99.90;;;;;;5016241;28;20022;-67
2022/10/22 01:30:23;;;;;;;6.15;1.80;;;17.80;99.90;;;;;;5016347;28;20096;-64
2022/10/22 01:32:53;;;;;;;5.32;1.75;;;17.80;99.90;;;;;;5016421;28;20053;-64
2022/10/22 01:35:24;;;;;;;8.52;1.27;;;17.80;99.90;;;;;;5016230;28;20034;-65
2022/10/22 01:37:57;;;;;;;9.55;1.60;;;17.90;99.90;;;;;;5031428;28;20022;-64
2022/10/22 01:40:23;;;;;;;7.85;2.30;;;17.90;99.90;;;;;;5016278;28;20029;-67
2022/10/22 01:42:59;;;;;;;5.80;1.40;;;17.80;99.90;;;;;;5015876;28;20419;-63
2022/10/22 01:45:27;;;;;;;6.43;1.90;;;17.80;99.90;;;;;;5016412;28;20065;-64
2022/10/22 01:48:11;;;;;;;5.22;1.83;;;17.80;99.90;;;;;;5016038;28;20030;-65
2022/10/22 01:51:03;;;;;;;3.55;1.20;;;17.90;99.90;;;;;;5016180;28;20057;-64
2022/10/22 01:53:47;;;;;;;4.07;1.48;;;17.90;99.90;;;;;;5016270;28;20026;-63
2022/10/22 01:56:36;;;;;;;3.97;1.38;;;17.90;99.90;;;;;;5015706;28;20034;-65
2022/10/22 01:59:04;;;;;;;6.68;2.00;;;17.80;99.90;;;;;;5015738;28;20029;-63
2022/10/22 02:01:40;;;;;;;5.38;1.10;;;17.80;99.90;;;;;;5016017;28;20109;-67
2022/10/22 02:04:36;;;;;;;5.18;1.60;;;17.80;99.90;;;;;;5015709;28;20029;-63
2022/10/22 02:07:05;;;;;;;4.10;1.25;;;17.80;99.90;;;;;;5015926;28;20038;-68
2022/10/22 02:09:33;;;;;;;7.18;1.38;;;17.80;99.90;;;;;;5015561;28;20092;-68
2022/10/22 02:12:04;;;;;;;5.57;1.30;;;17.80;99.90;;;;;;5015554;28;20025;-68
2022/10/22 02:14:31;;;;;;;5.32;1.55;;;17.70;99.90;;;;;;5015654;28;20018;-67
2022/10/22 02:16:59;;;;;;;5.28;1.70;;;17.80;99.90;;;;;;5015497;28;20045;-67
2022/10/22 02:19:52;;;;;;;4.28;1.38;;;17.70;99.90;;;;;;5014779;28;20080;-65
2022/10/22 02:22:19;;;;;;;5.95;1.65;;;17.80;99.90;;;;;;5015355;28;20065;-67
2022/10/22 02:24:45;;;;;;;6.88;1.88;;;17.70;99.90;;;;;;5014947;28;20034;-64
2022/10/22 02:27:31;;;;;;;7.63;1.98;;;17.70;99.90;;;;;;5015250;28;20132;-68
2022/10/22 02:30:08;;;;;;;11.20;2.83;;;17.70;99.90;;;;;;5015292;28;20025;-68
2022/10/22 02:32:52;;;;;;;5.97;1.55;;;17.60;99.90;;;;;;5015391;28;20026;-67
2022/10/22 02:35:21;;;;;;;6.32;1.42;;;17.60;99.90;;;;;;5015151;28;20088;-68
2022/10/22 02:37:48;;;;;;;5.47;1.60;;;17.70;99.90;;;;;;5015123;28;20022;-67
2022/10/22 02:40:15;;;;;;;4.70;1.33;;;17.60;99.90;;;;;;5014686;28;20030;-69
2022/10/22 02:42:41;;;;;;;4.50;1.52;;;17.60;99.90;;;;;;5015144;28;20483;-68
2022/10/22 02:45:07;;;;;;;3.63;1.45;;;17.70;99.90;;;;;;5014867;28;20040;-68
2022/10/22 02:47:33;;;;;;;7.85;1.92;;;17.70;99.90;;;;;;5015173;28;20022;-67
2022/10/22 02:49:59;;;;;;;9.27;2.28;;;17.60;99.90;;;;;;5014982;28;20109;-65
2022/10/22 02:52:24;;;;;;;3.30;1.30;;;17.60;99.90;;;;;;5014975;28;20037;-66
2022/10/22 02:54:50;;;;;;;6.30;1.70;;;17.60;99.90;;;;;;5046730;28;20028;-67
2022/10/22 02:57:15;;;;;;;6.93;1.85;;;17.60;99.90;;;;;;5033785;28;20076;-64
2022/10/22 02:59:41;;;;;;;6.78;1.83;;;17.50;99.90;;;;;;5032923;28;20036;-66
2022/10/22 03:02:06;;;;;;;7.97;1.95;;;17.60;99.90;;;;;;5034375;28;20101;-65
2022/10/22 03:04:32;;;;;;;5.93;1.63;;;17.60;99.90;;;;;;5032984;28;20155;-67
2022/10/22 03:06:57;;;;;;;4.90;1.42;;;17.60;99.90;;;;;;5033439;28;20120;-66
2022/10/22 03:09:23;;;;;;;9.32;1.88;;;17.60;99.90;;;;;;5034000;28;20025;-63
2022/10/22 03:11:49;;;;;;;5.03;1.48;;;17.50;99.90;;;;;;5034428;28;20025;-66
2022/10/22 03:14:14;;;;;;;7.65;2.10;;;17.50;99.90;;;;;;5034105;28;20120;-63
2022/10/22 03:16:40;;;;;;;4.13;1.63;;;17.50;99.90;;;;;;5034822;28;20072;-67
2022/10/22 03:19:05;;;;;;;5.22;1.50;;;17.50;99.90;;;;;;5034075;28;20108;-67
2022/10/22 03:21:37;;;;;;;8.32;2.00;;;17.50;99.90;;;;;;5033064;28;20482;-70
2022/10/22 03:24:08;;;;;;;3.28;1.38;;;17.50;99.90;;;;;;5024357;28;20073;-68
2022/10/22 03:26:34;;;;;;;6.30;1.90;;;17.60;99.90;;;;;;5032344;28;20497;-64
2022/10/22 03:29:00;;;;;;;8.35;1.80;;;17.50;99.90;;;;;;5032989;28;20026;-67
2022/10/22 03:31:26;;;;;;;6.50;1.90;;;17.50;99.90;;;;;;5032314;28;20087;-66
2022/10/22 03:33:52;;;;;;;9.35;2.10;;;17.50;99.90;;;;;;5032382;28;20025;-62
2022/10/22 03:36:17;;;;;;;7.72;1.75;;;17.50;99.90;;;;;;5033895;28;20032;-66
2022/10/22 03:38:43;;;;;;;5.15;1.80;;;17.50;99.90;;;;;;5032937;28;20021;-66
2022/10/22 03:41:09;;;;;;;9.70;2.05;;;17.50;99.90;;;;;;5033482;28;20112;-67
2022/10/22 03:43:36;;;;;;;5.32;1.52;;;17.50;99.90;;;;;;5033757;28;20022;-64
2022/10/22 03:46:02;;;;;;;6.00;1.65;;;17.50;99.90;;;;;;5033729;28;20038;-68
2022/10/22 03:48:27;;;;;;;4.15;1.63;;;17.50;99.90;;;;;;5033608;28;20025;-64
2022/10/22 03:50:53;;;;;;;4.03;1.40;;;17.50;99.90;;;;;;5033342;28;20029;-68
2022/10/22 03:53:18;;;;;;;8.02;1.38;;;17.50;99.90;;;;;;5033293;28;20032;-64
2022/10/22 03:55:44;;;;;;;8.32;1.50;;;17.50;99.90;;;;;;5033425;28;20061;-67
2022/10/22 03:58:10;;;;;;;6.03;1.63;;;17.50;99.90;;;;;;5033413;28;20021;-67
2022/10/22 04:00:35;;;;;;;6.15;1.80;;;17.50;99.90;;;;;;5033262;28;20026;-63
2022/10/22 04:03:01;;;;;;;5.70;1.48;;;17.50;99.90;;;;;;5033355;28;20067;-69
2022/10/22 04:05:27;;;;;;;7.45;1.95;;;17.50;99.90;;;;;;5033173;28;20029;-66
2022/10/22 04:07:52;;;;;;;4.55;1.52;;;17.50;99.90;;;;;;5033084;28;20147;-66
2022/10/22 04:10:18;;;;;;;6.15;1.30;;;17.50;99.90;;;;;;5033172;28;20482;-67
2022/10/22 04:12:47;;;;;;;3.42;1.15;;;17.50;99.90;;;;;;5033405;28;20025;-68
2022/10/22 04:15:12;;;;;;;5.63;1.63;;;17.50;99.90;;;;;;5033174;28;20391;-68
2022/10/22 04:17:38;;;;;;;5.72;1.58;;;17.50;99.90;;;;;;5033310;28;20040;-69
2022/10/22 04:20:04;;;;;;;5.95;1.23;;;17.50;99.90;;;;;;5033244;28;20029;-68
2022/10/22 04:22:33;;;;;;;5.00;1.55;;;17.50;99.90;;;;;;5032570;28;20056;-69
2022/10/22 04:24:59;;;;;;;7.40;1.60;;;17.50;99.90;;;;;;5032819;28;20056;-68
2022/10/22 04:27:24;;;;;;;6.30;1.70;;;17.50;99.90;;;;;;5032864;28;20076;-68
2022/10/22 04:29:51;;;;;;;6.68;1.70;;;17.40;99.90;;;;;;5033572;28;20021;-68
2022/10/22 04:32:16;;;;;;;7.85;1.83;;;17.40;99.90;;;;;;5032887;28;20071;-66
2022/10/22 04:34:42;;;;;;;10.07;2.28;;;17.40;99.90;;;;;;5032948;28;20022;-68
2022/10/22 04:37:08;;;;;;;6.75;1.38;;;17.40;99.90;;;;;;5032828;28;20097;-67
2022/10/22 04:39:33;;;;;;;5.93;1.30;;;17.40;99.90;;;;;;5032983;28;20382;-66
2022/10/22 04:41:59;;;;;;;5.90;1.65;;;17.40;99.90;;;;;;5034686;28;20467;-67
2022/10/22 04:44:24;;;;;;;5.45;1.65;;;17.40;99.90;;;;;;5037154;28;20459;-67
2022/10/22 04:46:50;;;;;;;9.85;2.30;;;17.40;99.90;;;;;;5036707;28;20112;-62
2022/10/22 04:49:15;;;;;;;7.75;1.88;;;17.40;99.90;;;;;;5036998;28;20025;-63
2022/10/22 04:51:41;;;;;;;4.32;1.60;;;17.30;99.90;;;;;;5036633;28;20040;-61
2022/10/22 04:54:06;;;;;;;7.43;1.50;;;17.40;99.90;;;;;;5037082;28;20550;-65
2022/10/22 04:56:32;;;;;;;9.00;1.70;;;17.30;99.90;;;;;;5036639;28;20101;-63
2022/10/22 04:59:05;;;;;;;10.43;1.83;;;17.30;99.90;;;;;;5036716;28;20135;-64
2022/10/22 05:01:42;;;;;;;5.30;1.80;;;17.30;99.90;;;;;;5025745;28;20083;-64
2022/10/22 05:04:09;;;;;;;7.63;1.65;;;17.30;99.90;;;;;;5017047;28;20026;-67
2022/10/22 05:06:36;;;;;;;6.30;1.38;;;17.30;99.90;;;;;;5014551;28;20030;-63
2022/10/22 05:09:05;;;;;;;5.28;1.80;;;17.20;99.90;;;;;;5030815;28;20018;-63
2022/10/22 05:11:33;;;;;;;6.57;1.88;;;17.20;99.90;;;;;;5016536;28;20260;-61
2022/10/22 05:14:01;;;;;;;6.78;2.15;;;17.20;99.90;;;;;;5016497;28;20398;-61
2022/10/22 05:16:28;;;;;;;7.47;1.80;;;17.20;99.90;;;;;;5016724;28;20475;-63
2022/10/22 05:18:54;;;;;;;6.07;1.52;;;17.20;99.90;;;;;;5016347;28;20022;-61
2022/10/22 05:21:21;;;;;;;6.53;1.50;;;17.20;99.90;;;;;;5016597;28;20372;-65
2022/10/22 05:23:48;;;;;;;7.07;1.80;;;17.20;99.90;;;;;;5016600;28;20104;-63
2022/10/22 05:26:16;;;;;;;5.57;1.55;;;17.20;99.90;;;;;;5016696;28;20045;-64
2022/10/22 05:28:42;;;;;;;6.53;1.80;;;17.20;99.90;;;;;;5019781;28;20045;-61
2022/10/22 05:31:10;;;;;;;8.13;1.77;;;17.20;99.90;;;;;;5035941;28;20433;-61
2022/10/22 05:33:36;;;;;;;10.68;1.95;;;17.20;99.90;;;;;;5035704;28;20049;-62
2022/10/22 05:36:04;;;;;;;7.22;1.98;;;17.10;99.90;;;;;;5035938;28;20021;-63
2022/10/22 05:38:31;;;;;;;5.82;1.55;;;17.20;99.90;;;;;;5050598;28;20398;-64
2022/10/22 05:41:01;;;;;;;7.55;2.10;;;17.10;99.90;;;;;;5055686;28;20378;-62
2022/10/22 05:43:27;;;;;;;6.43;1.70;;;17.10;99.90;;;;;;5055683;28;20025;-62
2022/10/22 05:45:53;;;;;;;10.93;1.83;;;17.10;99.90;;;;;;5055797;28;20045;-62
2022/10/22 05:48:19;;;;;;;8.05;2.00;;;17.10;99.90;;;;;;5055386;28;20182;-61
2022/10/22 05:50:49;;;;;;;5.07;1.55;;;17.10;99.90;;;;;;5055668;28;20024;-62
2022/10/22 05:53:16;;;;;;;6.63;1.60;;;17.10;99.90;;;;;;5053500;28;20021;-64
2022/10/22 05:55:41;;;;;;;8.00;2.00;;;17.10;99.90;;;;;;5054355;28;20477;-61
2022/10/22 05:58:08;;;;;;;9.20;1.90;;;17.00;99.90;;;;;;5055511;28;20028;-63
2022/10/22 06:00:33;;;;;;;6.63;1.83;;;17.00;99.90;;;;;;5055486;28;20029;-62
2022/10/22 06:02:59;;;;;;;5.95;1.85;;;17.00;99.90;;;;;;5055178;28;20031;-65
2022/10/22 06:05:25;;;;;;;10.35;1.75;;;17.00;99.90;;;;;;5055379;28;20031;-66
2022/10/22 06:07:51;;;;;;;5.32;1.67;;;17.10;99.90;;;;;;5055328;28;20029;-67
2022/10/22 06:10:19;;;;;;;9.82;1.80;;;17.00;99.90;;;;;;5055597;28;20017;-64
2022/10/22 06:12:48;;;;;;;6.88;1.80;;;17.00;99.90;;;;;;5055322;28;20033;-68
2022/10/22 06:15:16;;;;;;;8.65;1.73;;;17.00;99.90;;;;;;5055187;28;20029;-65
2022/10/22 06:17:45;;;;;;;4.57;1.50;;;17.00;99.90;;;;;;5054822;28;20370;-68
2022/10/22 06:20:11;;;;;;;6.93;1.50;;;17.10;99.90;;;;;;5054988;28;20381;-68
2022/10/22 06:22:37;;;;;;;5.00;1.20;;;17.10;99.90;;;;;;5055063;28;20104;-67
2022/10/22 06:25:04;;;;;;;7.30;1.95;;;17.10;99.90;;;;;;5054902;28;20116;-67
2022/10/22 06:27:30;;;;;;;6.40;2.10;;;17.10;99.90;;;;;;5053810;28;20382;-68
2022/10/22 06:29:55;;;;;;;9.07;2.03;;;17.10;99.90;;;;;;5053726;28;20025;-68
2022/10/22 06:32:21;;;;;;;11.15;2.08;;;17.10;99.90;;;;;;5054712;28;20029;-67
2022/10/22 06:34:47;;;;;;;6.93;1.83;;;17.10;99.90;;;;;;5054793;28;20025;-67
2022/10/22 06:37:14;;;;;;;6.43;1.45;;;17.10;99.90;;;;;;5045727;28;20043;-60
2022/10/22 06:39:39;;;;;;;7.68;1.83;;;17.00;99.90;;;;;;5034885;28;20036;-65
2022/10/22 06:42:05;;;;;;;9.40;2.22;;;17.10;99.90;;;;;;5032963;28;20055;-67
2022/10/22 06:44:31;;;;;;;6.93;1.90;;;17.00;99.90;;;;;;5032604;28;20017;-68
2022/10/22 06:46:56;;;;;;;5.40;1.70;;;17.00;99.90;;;;;;5034418;28;20451;-61
2022/10/22 06:49:22;;;;;;;7.13;1.55;;;17.00;99.90;;;;;;5034395;28;20502;-66
2022/10/22 06:51:51;;;;;;;6.90;2.13;;;17.00;99.90;;;;;;5034448;28;20363;-68
2022/10/22 06:54:17;;;;;;;5.18;1.77;;;17.00;99.90;;;;;;5034574;28;20463;-65
2022/10/22 06:56:43;;;;;;;5.57;1.77;;;17.00;99.90;;;;;;5032170;28;20080;-63
2022/10/22 06:59:08;;;;;;;5.40;1.90;;;17.00;99.90;;;;;;5026090;28;20463;-62
2022/10/22 07:01:35;;;;;;;8.20;2.25;;;17.00;99.90;;;;;;5029273;28;20728;-64
2022/10/22 07:04:01;;;;;;;8.70;2.30;;;17.00;99.90;;;;;;5033775;28;20051;-65
2022/10/22 07:06:28;;;;;;;7.32;2.38;;;17.00;99.90;;;;;;5033265;28;20120;-63
2022/10/22 07:08:56;;;;;;;9.93;2.50;;;17.10;99.90;;;;;;5043467;28;20051;-64
2022/10/22 07:11:24;;;;;;;8.20;2.22;;;17.20;99.90;;;;;;5048167;28;20123;-65
2022/10/22 07:13:52;;;;;;;10.07;2.55;;;17.10;99.90;;;;;;5030288;28;20017;-62
2022/10/22 07:16:18;;;;;;;10.63;2.78;;;17.10;99.90;;;;;;5029889;28;20082;-65
2022/10/22 07:18:44;;;;;;;7.35;2.33;;;17.20;99.90;;;;;;5035431;28;20029;-62
2022/10/22 07:21:11;;;;;;;10.43;2.40;;;17.20;99.90;;;;;;5032773;28;20033;-62
2022/10/22 07:23:37;;;;;;;9.02;1.77;;;17.20;99.90;;;;;;5038306;28;20037;-65
2022/10/22 07:26:05;;;;;;;7.45;2.30;;;17.20;99.90;;;;;;5045921;28;20124;-62
2022/10/22 07:28:32;;;;;;;8.52;2.30;;;17.30;99.90;;;;;;5033095;28;20033;-62
2022/10/22 07:30:58;;;;;;;6.78;1.90;;;17.30;99.90;;;;;;5032195;28;20029;-62
2022/10/22 07:33:24;;;;;;;7.30;2.00;;;17.30;99.90;;;;;;5030723;28;20379;-61
2022/10/22 07:35:49;;;;;;;4.97;1.83;;;17.30;99.90;;;;;;5030729;28;20025;-60
2022/10/22 07:38:15;;;;;;;9.02;2.00;;;17.40;99.90;;;;;;5034041;28;20029;-63
2022/10/22 07:40:41;;;;;;;7.85;1.90;;;17.40;99.90;;;;;;5026310;28;20434;-67
2022/10/22 07:43:06;;;;;;;11.30;1.98;;;17.40;99.90;;;;;;5027169;28;20029;-66
2022/10/22 07:45:32;;;;;;;6.93;1.50;;;17.40;99.90;;;;;;5029202;28;20038;-67
2022/10/22 07:47:59;;;;;;;9.45;1.85;;;17.40;99.90;;;;;;5030052;28;20040;-66
2022/10/22 07:50:25;;;;;;;7.65;1.98;;;17.40;99.90;;;;;;5030524;28;20776;-62
2022/10/22 07:52:51;;;;;;;8.57;2.00;;;17.40;99.90;;;;;;5030985;28;20025;-62
2022/10/22 07:55:16;;;;;;;8.07;2.03;;;17.40;99.90;;;;;;5025529;28;20352;-60
2022/10/22 07:57:42;;;;;;;6.97;1.75;;;17.50;99.90;;;;;;5026888;28;20021;-61
2022/10/22 08:00:08;;;;;;;6.20;1.52;;;17.50;99.90;;;;;;5040426;28;20033;-67
2022/10/22 08:02:34;;;;;;;5.68;1.70;;;17.50;99.90;;;;;;5028996;28;20033;-67
2022/10/22 08:05:00;;;;;;;6.85;1.50;;;17.50;99.90;;;;;;5028637;28;20059;-64
2022/10/22 08:07:25;;;;;;;7.60;1.70;;;17.50;99.90;;;;;;5029612;28;20474;-68
2022/10/22 08:09:51;;;;;;;6.82;1.40;;;17.50;99.90;;;;;;5037336;28;20056;-70
2022/10/22 08:12:17;;;;;;;8.32;1.40;;;17.50;99.90;;;;;;5032513;28;20040;-69
2022/10/22 08:14:42;;;;;;;10.65;1.70;;;17.50;99.90;;;;;;5029506;28;20049;-70
2022/10/22 08:17:08;;;;;;;8.00;1.52;;;17.50;99.90;;;;;;5031007;28;20474;-69
2022/10/22 08:19:34;;;;;;;8.07;1.60;;;17.50;99.90;;;;;;5023389;28;20021;-61
2022/10/22 08:22:00;;;;;;;9.35;1.85;;;17.50;99.90;;;;;;5030301;28;20033;-69
2022/10/22 08:24:26;;;;;;;8.77;2.03;;;17.60;99.90;;;;;;5033179;28;20033;-66
2022/10/22 08:26:53;;;;;;;11.73;2.22;;;17.60;99.90;;;;;;5023397;28;20379;-70
2022/10/22 08:29:21;;;;;;;9.05;2.10;;;17.60;99.90;;;;;;5024348;28;20084;-67
2022/10/22 08:31:48;;;;;;;8.32;1.60;;;17.60;99.90;;;;;;5024378;28;20148;-68
2022/10/22 08:34:13;;;;;;;6.90;1.45;;;17.60;99.90;;;;;;5029605;28;20113;-68
2022/10/22 08:36:39;;;;;;;5.05;1.30;;;17.60;99.90;;;;;;5017779;28;20505;-69
2022/10/22 08:39:05;;;;;;;6.45;1.60;;;17.60;99.90;;;;;;5031541;28;20032;-68
2022/10/22 08:41:54;;;;;;;8.45;1.30;;;17.60;99.90;;;;;;5034979;28;20026;-61
2022/10/22 08:44:35;;;;;;;8.68;1.52;;;17.60;99.90;;;;;;5022962;28;20056;-68
2022/10/22 08:47:20;;;;;;;6.40;1.70;;;17.60;99.90;;;;;;5022804;28;20042;-72
2022/10/22 08:49:45;;;;;;;6.10;1.50;;;18.00;99.90;;;;;;5029019;28;20470;-68
2022/10/22 08:52:14;;;;;;;6.80;1.70;;;18.10;99.90;;;;;;5034250;28;20032;-69
2022/10/22 08:54:49;;;;;;;5.05;1.33;;;18.30;99.90;;;;;;5020150;28;20463;-69
2022/10/22 08:57:49;;;;;;;5.32;1.00;;;18.40;99.90;;;;;;5023399;28;20029;-68
2022/10/22 09:00:27;;;;;;;11.70;1.58;;;18.40;99.90;;;;;;5020029;28;20030;-68
2022/10/22 09:02:55;;;;;;;8.35;1.63;;;18.50;99.90;;;;;;5024189;28;20036;-69
2022/10/22 09:05:45;;;;;;;5.90;1.10;;;18.50;99.90;;;;;;5017928;28;20038;-71
2022/10/22 09:08:13;;;;;;;9.98;1.67;;;18.60;99.90;;;;;;5021706;28;20029;-71
2022/10/22 09:10:45;;;;;;;10.05;1.20;;;18.60;99.90;;;;;;5023483;28;20374;-70
2022/10/22 09:13:20;;;;;;;9.57;2.30;;;18.70;99.70;;;;;;5024536;28;20045;-71
2022/10/22 09:15:51;;;;;;;11.55;1.80;;;18.80;99.70;;;;;;5023340;28;20026;-71
2022/10/22 09:18:30;;;;;;;6.00;1.60;;;18.90;99.50;;;;;;5019872;28;20025;-70
2022/10/22 09:21:04;;;;;;;7.15;1.25;;;19.10;99.30;;;;;;5031152;28;20064;-72
2022/10/22 09:23:54;;;;;;;8.50;1.45;;;19.10;99.20;;;;;;5034029;28;20541;-72
2022/10/22 09:26:20;;;;;;;10.30;1.73;;;19.10;99.20;;;;;;5024798;28;20034;-70
2022/10/22 09:28:49;;;;;;;8.93;1.90;;;19.20;99.10;;;;;;5028516;28;20047;-71
2022/10/22 09:31:15;;;;;;;6.18;1.70;;;19.20;99.00;;;;;;5033885;28;20041;-71
2022/10/22 09:33:43;;;;;;;9.05;1.80;;;19.20;98.80;;;;;;5032173;28;20033;-71
2022/10/22 09:36:15;;;;;;;5.25;1.40;;;19.20;98.80;;;;;;5033974;28;20067;-71
2022/10/22 09:38:46;;;;;;;6.78;1.42;;;19.20;98.70;;;;;;5031477;28;20359;-71
2022/10/22 09:41:13;;;;;;;6.03;1.60;;;19.30;98.60;;;;;;5034513;28;20116;-70
2022/10/22 09:43:38;;;;;;;5.63;1.50;;;19.30;98.50;;;;;;5032100;28;20406;-70
2022/10/22 09:46:07;;;;;;;8.60;2.05;;;19.30;98.40;;;;;;5033547;28;20505;-71
2022/10/22 09:48:40;;;;;;;6.90;1.85;;;19.40;98.40;;;;;;5029841;28;20025;-71
2022/10/22 09:51:14;;;;;;;6.40;1.55;;;19.30;98.40;;;;;;5033609;28;20037;-71
2022/10/22 09:53:45;;;;;;;6.35;1.48;;;19.30;98.40;;;;;;5041108;28;20056;-71
2022/10/22 09:56:27;;;;;;;8.00;2.08;;;19.40;98.40;;;;;;5033428;28;20041;-72
2022/10/22 09:58:55;;;;;;;4.80;1.58;;;19.40;98.40;;;;;;5035278;28;20036;-70
2022/10/22 10:01:27;;;;;;;6.03;1.35;;;19.40;98.20;;;;;;5032716;28;20025;-71
2022/10/22 10:03:53;;;;;;;8.30;1.98;;;19.50;98.10;;;;;;5040128;28;20024;-70
2022/10/22 10:06:21;;;;;;;7.90;1.52;;;19.50;98.20;;;;;;5035815;28;20042;-72
2022/10/22 10:08:48;;;;;;;7.38;1.67;;;19.50;98.20;;;;;;5029977;28;20022;-71
2022/10/22 10:11:26;;;;;;;7.75;1.35;;;19.50;98.30;;;;;;5046144;28;20029;-70
2022/10/22 10:14:17;;;;;;;8.63;1.85;;;19.50;98.20;;;;;;5035372;28;20075;-71
2022/10/22 10:17:17;;;;;;;6.55;1.75;;;19.60;98.30;;;;;;5032592;28;20032;-73
2022/10/22 10:20:09;;;;;;;8.15;1.58;;;19.50;98.20;;;;;;5022250;28;20390;-71
2022/10/22 10:22:54;;;;;;;7.20;1.55;;;19.60;98.30;;;;;;5029754;28;20022;-70
2022/10/22 10:25:27;;;;;;;7.80;1.90;;;19.60;98.30;;;;;;5036280;28;20223;-70
2022/10/22 10:27:59;;;;;;;10.73;2.47;;;19.60;98.70;;;;;;5031620;28;20022;-71
2022/10/22 10:30:25;;;;;;;9.48;2.20;;;19.60;99.00;;;;;;5039540;28;20037;-70
2022/10/22 10:33:11;;;;;;;12.13;3.15;;;19.70;99.40;;;;;;5047427;28;20067;-71
2022/10/22 10:35:55;;;;;;;16.35;4.13;;;19.60;99.90;;;;;;5032351;28;20071;-71
2022/10/22 10:38:55;;;;;;;14.43;4.15;;;19.60;99.90;;;;;;5020975;28;20179;-71
2022/10/22 10:41:40;;;;;;;18.65;6.07;;;19.60;99.90;;;;;;5030939;28;20033;-70
2022/10/22 10:44:16;;;;;;;16.00;5.57;;;19.70;99.90;;;;;;5031344;28;20036;-71
2022/10/22 10:46:53;;;;;;;13.80;5.70;;;19.80;99.90;;;;;;5028164;28;20030;-71
2022/10/22 10:49:23;;;;;;;14.70;6.07;;;19.70;99.90;;;;;;5025677;28;20475;-70
2022/10/22 10:52:26;;;;;;;14.95;4.43;;;19.90;99.90;;;;;;5027342;28;20022;-70
2022/10/22 10:55:08;;;;;;;;;;;19.90;99.90;;;;;;5030815;28;20033;-70
2022/10/22 10:58:04;;;;;;;12.48;4.03;;;19.90;99.90;;;;;;5038630;28;20004;-70
2022/10/22 11:01:01;;;;;;;15.05;3.78;;;19.90;99.90;;;;;;5029865;28;20025;-71
2022/10/22 11:03:44;;;;;;;10.60;2.85;;;20.00;99.90;;;;;;5033161;28;20033;-71
2022/10/22 11:06:17;;;;;;;8.13;2.30;;;19.90;99.90;;;;;;5030667;28;20045;-72
2022/10/22 11:08:47;;;;;;;8.80;2.63;;;19.90;99.90;;;;;;5024082;28;20022;-71
2022/10/22 11:11:52;;;;;;;14.63;2.17;;;19.90;99.90;;;;;;5024074;28;20071;-70
2022/10/22 11:14:49;;;;;;;8.70;2.17;;;19.90;99.90;;;;;;5031308;28;20037;-70
2022/10/22 11:17:16;;;;;;;9.80;2.13;;;19.90;99.90;;;;;;5011457;28;20078;-71
2022/10/22 11:19:51;;;;;;;8.13;2.47;;;19.90;99.90;;;;;;5023537;28;20037;-71
2022/10/22 11:22:25;;;;;;;14.45;3.05;;;20.00;99.90;;;;;;5018381;28;20021;-71
2022/10/22 11:25:00;;;;;;;18.65;2.90;;;20.10;99.80;;;;;;5022053;28;20041;-71
2022/10/22 11:27:52;;;;;;;13.30;2.20;;;20.00;99.40;;;;;;5031277;28;20037;-73
2022/10/22 11:30:21;;;;;;;11.75;2.80;;;20.00;99.00;;;;;;5032420;28;20033;-74
2022/10/22 11:32:53;;;;;;;11.48;2.10;;;20.00;98.80;;;;;;5033992;28;20030;-72
2022/10/22 11:35:24;;;;;;;16.77;2.53;;;19.90;98.70;;;;;;5029184;28;20034;-79
2022/10/22 11:37:51;;;;;;;11.77;1.83;;;19.70;99.10;;;;;;5024764;28;20106;-79
2022/10/22 11:40:38;;;;;;;9.35;2.20;;;19.40;99.80;;;;;;5018918;28;20029;-78
2022/10/22 11:43:09;;;;;;;11.73;2.38;;;19.20;99.90;;;;;;5025149;28;20032;-78
2022/10/22 11:45:41;;;;;;;13.77;2.33;;;19.10;99.90;;;;;;5024821;28;20029;-78
2022/10/22 11:48:16;;;;;;;9.57;2.10;;;19.10;99.90;;;;;;5023692;28;20040;-79
2022/10/22 11:50:55;;;;;;;9.20;1.63;;;19.00;99.90;;;;;;5020344;28;20033;-77
2022/10/22 11:53:29;;;;;;;10.52;1.90;;;19.00;99.90;;;;;;5025405;28;20074;-80
2022/10/22 11:55:58;;;;;;;11.07;1.98;;;19.00;99.90;;;;;;5025620;28;20075;-77
2022/10/22 11:58:43;;;;;;;9.48;2.72;;;19.00;99.80;;;;;;5018633;28;20060;-77
2022/10/22 12:01:09;;;;;;;7.57;2.10;;;19.00;99.50;;;;;;5025229;28;20026;-77
2022/10/22 12:03:39;;;;;;;11.82;1.73;;;19.10;99.70;;;;;;5030782;28;20017;-77
2022/10/22 12:06:11;;;;;;;13.75;1.85;;;19.10;99.10;;;;;;5028737;28;20049;-73
2022/10/22 12:08:49;;;;;;;5.70;1.63;;;19.10;99.00;;;;;;5033847;28;20028;-78
2022/10/22 12:11:25;;;;;;;8.60;2.03;;;19.10;98.90;;;;;;5039325;28;20070;-74
2022/10/22 12:13:59;;;;;;;10.18;1.77;;;19.10;98.60;;;;;;5029900;28;20049;-77
2022/10/22 12:16:42;;;;;;;10.27;2.10;;;19.10;98.50;;;;;;5031904;28;20171;-75
2022/10/22 12:19:13;;;;;;;7.88;1.25;;;19.10;98.20;;;;;;5035388;28;20060;-78
2022/10/22 12:21:40;;;;;;;9.05;1.63;;;19.20;97.80;;;;;;5026511;28;20029;-81
2022/10/22 12:24:09;;;;;;;8.05;1.45;;;19.10;97.80;;;;;;5022053;28;20083;-76
2022/10/22 12:26:36;;;;;;;8.15;1.27;;;19.20;97.70;;;;;;5017627;28;20711;-78
2022/10/22 12:29:09;;;;;;;6.82;1.65;;;19.20;97.80;;;;;;5021361;28;20392;-78
2022/10/22 12:31:37;;;;;;;9.93;1.42;;;19.20;97.90;;;;;;5017047;28;20511;-76
2022/10/22 12:34:03;;;;;;;8.32;1.73;;;19.20;97.90;;;;;;5018552;28;20063;-79
2022/10/22 12:36:32;;;;;;;6.82;1.38;;;19.30;97.70;;;;;;5020708;28;20088;-77
2022/10/22 12:39:03;;;;;;;7.93;2.00;;;19.30;97.70;;;;;;5021450;28;20121;-76
2022/10/22 12:41:34;;;;;;;6.67;2.07;;;19.20;97.60;;;;;;5035125;28;20117;-77
2022/10/22 12:44:01;;;;;;;7.30;1.58;;;19.20;97.60;;;;;;5026723;28;20025;-81
2022/10/22 12:46:30;;;;;;;10.05;1.60;;;19.30;97.70;;;;;;5019049;28;20029;-82
2022/10/22 12:49:00;;;;;;;9.25;2.08;;;19.20;97.60;;;;;;5019271;28;21275;-80
2022/10/22 12:51:26;;;;;;;11.57;1.83;;;19.20;97.60;;;;;;5024200;28;20075;-76
2022/10/22 12:53:53;;;;;;;7.05;1.42;;;19.20;97.50;;;;;;5034777;28;20474;-82
2022/10/22 12:56:25;;;;;;;7.32;1.92;;;19.20;97.50;;;;;;5016713;28;20106;-81
2022/10/22 12:58:56;;;;;;;6.75;1.67;;;19.20;97.40;;;;;;5021946;28;20037;-83
2022/10/22 13:01:31;;;;;;;7.40;1.95;;;19.20;97.50;;;;;;5019612;28;20502;-81